Venango Regional Airport
KFKL : now visible

Airfield :











YOU CAN JOIN US ON...

 
LOGIN :

Register | Disclaimer

   EN    FR    IT 

 









Legend :    VFR   Marginal VFR   IFR   Intensive IFR   Very Intensive IFR
Visi :
Ceiling :
>= 8 km
>= 3000ft
5 to 8 km
1000 to 3000 ft
1500m to 5 km
500 to 1000 ft
800 to 1500m
200 to 500 ft
< 800m
< 200 ft
Symbols :   Thunderstorms  Fog  Heavy snow  Heavy precipitations  Wind > 20 kt






- Airport Elevation : 1540 ft


KFKL - Venango Regional

CURRENT METAR :
  • 042303Z AUTO 26007KT 10SM BKN009 OVC080 19/18 A2994 RMK AO2 CIG 007V013

EXPIRED METARs :
  • 042256Z AUTO 26007KT 10SM SCT009 OVC080 19/18 A2994 RMK AO2 SLP133 T01940183
  • 042249Z AUTO 26006KT 10SM SCT009 OVC080 19/18 A2994 RMK AO2
  • 042217Z AUTO 25007KT 10SM BKN011 OVC095 19/18 A2993 RMK AO2
  • 042156Z AUTO 27008KT 10SM FEW006 SCT011 OVC100 20/19 A2992 RMK AO2 RAE15 SLP128 P0000 T02000189
  • 042117Z AUTO 26007KT 10SM BKN006 BKN028 OVC043 19/19 A2992 RMK AO2 LTG DSNT E AND S RAE15 CIG 004V009 P0000
  • 042109Z AUTO 28006KT 10SM -RA SCT008 BKN031 OVC095 19/19 A2992 RMK AO2 LTG DSNT S P0000
  • 042056Z AUTO 30004KT 10SM -RA FEW028 SCT034 OVC046 19/19 A2991 RMK AO2 LTG DSNT S TSB00E29RAB05 SLP123 P0008 60008 T01940189 53007
  • 042035Z AUTO 30007KT 8SM RA FEW035 BKN048 OVC080 19/18 A2991 RMK AO2 LTG DSNT SW TSB00E29RAB05 P0005

TAF KFKL
Valid from the 04 at 18:00 until the 05 at 18:00 UTC


041725Z 0418/0518 29006KT P6SM VCSH BKN050
TEMPO 0420/0424 4SM SHRA BKN035
FM050200 26004KT P6SM VCSH SCT040
FM050800 25003KT 1SM BR SCT001 BKN005
FM051300 26004KT P6SM BKN010
FM051500 26005KT P6SM BKN035
KZOB FIR / North America



MET'MAP, your aeronautical weather chart ! - Copyright ORBIFLY December 2007 - Disclaimer

ORBIFLY MET'MAP TEAM :

Programming & Development : Alexandra Zaïnal
Concept & original design : Baudouin d'Aumeries
Assistance for programming : Marc-Olivier Méhu
Technical & hardware support : Manuel Goepfert

Contact : metmap@orbifly.com




SOURCES & CREDITS :

   NOAA       Earth
Advisory